Ypsilanti, MI (48198)

4:07 PM EDT on August 04, 2015 (GMT -0400)
Prospect Pointe | | Change Station
CLOSE
Current Station
Personal Weather Station
Location: Superior Township, MI
Elevation: 807 ft
Nearby Weather Stations

Elev 807 ft 42.27 °N, 83.61 °W | Updated 3 seconds ago

Mostly Cloudy
Mostly Cloudy
80.4 °F
Feels Like 81 °F
N
3.8
Wind Variable Wind from East
Gusts 6.0 mph

Today
High -- | Low -- °F
--% Chance of Precip.
Yesterday
High -- | Low -- °F
Precip. -- in
6:29 AM 8:50 PM
Waning Gibbous, 75% visible
Pressure 29.91 in
Visibility 10.0 miles
Clouds Few 6000 ft
Few 8000 ft
Heat Index 81 °F
Dew Point 57 °F
Humidity 44%
Rainfall 0.00 in
Snow Depth Not available.
UV 8 out of 12
Pollen 5.90 out of 12
Air Quality Not available.
Flu Activity Not available.
METAR KYIP 041953Z AUTO 30012KT 10SM FEW060 FEW080 28/14 A2993 RMK AO2 SLP127 T02830139 TSNO

More Conditions Fewer Conditions

Pressure 29.91 in
Visibility 10.0 miles
Clouds Few 6000 ft
Few 8000 ft
Heat Index 81 °F
Dew Point 57 °F
Humidity 44%
Rainfall 0.00 in
Snow Depth Not available.
UV 8 out of 12
Pollen 5.90 out of 12
Air Quality Not available.
Flu Activity Not available.
METAR KYIP 041953Z AUTO 30012KT 10SM FEW060 FEW080 28/14 A2993 RMK AO2 SLP127 T02830139 TSNO

More Conditions Fewer Conditions

10-Day Weather Forecast

×

Almanac

Astronomy

Aug. 04, 2015 Rise Set
Actual Time
Civil Twilight
Nautical Twilight
Astronomical Twilight
Moon
Length of Visible Light
Length of Day
Tomorrow will be .
, % of the Moon is Illuminated

Today's Extremes

State Highs State Lows

Community

WunderPhotos

Upload Photos

1,843,962 photos uploaded!

WunderBlogs® & News

Nearby

Air Quality

  Air Quality AQ Index Pollutant
Not available.

Snow Depth

Station Depth Elevation

Earthquake Activity

City Distance Mag. Time & Date
Minimum magnitude displayed is 2.5.

Coastal Water Temperatures

Place Temperature

Stations

Nearby Weather Stations

Station Location Temp. Windchill Dew Point Humidity Wind Precip. Elev Updated Type